createdAt,value
2016-07-20T00:00:20.461Z,41.36
2016-07-20T00:01:21.174Z,41.26
2016-07-20T00:02:20.476Z,41.26
2016-07-20T00:03:21.186Z,41.26
2016-07-20T00:04:21.196Z,41.06
2016-07-20T00:05:20.508Z,41.36
2016-07-20T00:06:21.212Z,41.36
2016-07-20T00:07:22.321Z,41.36
2016-07-20T00:08:21.225Z,41.26
2016-07-20T00:09:21.835Z,41.26
2016-07-20T00:10:20.533Z,41.36
2016-07-20T00:11:20.542Z,41.06
2016-07-20T00:12:21.266Z,41.36
2016-07-20T00:13:20.553Z,41.36
2016-07-20T00:14:21.270Z,41.16
2016-07-20T00:15:21.275Z,41.16
2016-07-20T00:16:21.292Z,41.36
2016-07-20T00:17:21.293Z,41.74
2016-07-20T00:18:22.100Z,41.64
2016-07-20T00:19:20.600Z,40.97
2016-07-20T00:20:21.005Z,41.45
2016-07-20T00:21:21.321Z,41.64
2016-07-20T00:22:21.326Z,41.45
2016-07-20T00:23:21.335Z,41.55
2016-07-20T00:24:21.343Z,41.45
2016-07-20T00:25:20.640Z,41.55
2016-07-20T00:26:21.357Z,41.45
2016-07-20T00:27:20.656Z,41.55
2016-07-20T00:28:20.664Z,41.64
2016-07-20T00:29:20.673Z,41.36
2016-07-20T00:30:21.387Z,41.26
2016-07-20T00:31:20.833Z,41.84
2016-07-20T00:32:21.402Z,41.84
2016-07-20T00:33:20.700Z,41.94
2016-07-20T00:34:20.709Z,41.74
2016-07-20T00:35:21.421Z,41.26
2016-07-20T00:36:20.725Z,41.36
2016-07-20T00:37:21.439Z,41.74
2016-07-20T00:38:20.737Z,41.16
2016-07-20T00:39:20.745Z,41.74
2016-07-20T00:40:20.755Z,41.94
2016-07-20T00:41:21.470Z,41.94
2016-07-20T00:42:20.915Z,41.45
2016-07-20T00:43:21.481Z,41.64
2016-07-20T00:44:21.491Z,41.84
2016-07-20T00:45:20.789Z,41.53
2016-07-20T00:46:21.504Z,41.82
2016-07-20T00:47:21.562Z,41.72
2016-07-20T00:48:21.517Z,41.84
2016-07-20T00:49:21.525Z,41.94
2016-07-20T00:50:20.830Z,42.13
2016-07-20T00:51:21.953Z,41.55
2016-07-20T00:52:21.547Z,42.03
2016-07-20T00:53:20.948Z,41.55
2016-07-20T00:54:21.561Z,42.03
2016-07-20T00:55:20.862Z,41.72
2016-07-20T00:56:21.576Z,42.13
2016-07-20T00:57:21.582Z,42.52
2016-07-20T00:58:21.594Z,41.94
2016-07-20T00:59:21.597Z,41.84
2016-07-20T01:00:20.895Z,42.71
2016-07-20T01:01:20.903Z,41.64
2016-07-20T01:02:20.911Z,42.81
2016-07-20T01:03:20.918Z,42.52
2016-07-20T01:04:21.128Z,42.33
2016-07-20T01:05:21.643Z,42.6
2016-07-20T01:06:21.648Z,42.69
2016-07-20T01:07:21.656Z,42.3
2016-07-20T01:08:21.661Z,42.43
2016-07-20T01:09:20.963Z,42.4
2016-07-20T01:10:21.677Z,42.5
2016-07-20T01:11:21.683Z,42.89
2016-07-20T01:12:20.986Z,42.91
2016-07-20T01:13:22.045Z,42.4
2016-07-20T01:14:21.706Z,42.43
2016-07-20T01:15:21.005Z,42.89
2016-07-20T01:16:21.721Z,42.61
2016-07-20T01:17:21.727Z,42.5
2016-07-20T01:18:21.738Z,42.43
2016-07-20T01:19:21.742Z,42.4
2016-07-20T01:20:21.747Z,42.43
2016-07-20T01:21:21.050Z,42.89
2016-07-20T01:22:21.769Z,42.52
2016-07-20T01:23:21.067Z,42.99
2016-07-20T01:24:35.950Z,42.52
2016-07-20T01:25:21.075Z,42.79
2016-07-20T01:26:21.793Z,42.33
2016-07-20T01:27:21.094Z,42.6
2016-07-20T01:28:21.109Z,42.21
2016-07-20T01:29:21.106Z,42.4
2016-07-20T01:30:21.822Z,42.89
2016-07-20T01:31:21.830Z,42.5
2016-07-20T01:32:21.837Z,42.89
2016-07-20T01:33:21.136Z,42.5
2016-07-20T01:34:21.845Z,42.4
2016-07-20T01:35:21.861Z,42.4
2016-07-20T01:36:21.158Z,42.6
2016-07-20T01:37:21.871Z,42.69
2016-07-20T01:38:21.173Z,42.89
2016-07-20T01:39:21.888Z,42.6
2016-07-20T01:40:21.898Z,42.99
2016-07-20T01:41:21.903Z,42.5
2016-07-20T01:42:21.912Z,42.3
2016-07-20T01:43:21.918Z,42.3
2016-07-20T01:44:21.923Z,42.99
2016-07-20T01:45:21.224Z,42.21
2016-07-20T01:46:21.938Z,42.61
2016-07-20T01:47:21.253Z,42.89
2016-07-20T01:48:21.954Z,42.99
2016-07-20T01:49:21.962Z,42.69
2016-07-20T01:50:21.262Z,43.1
2016-07-20T01:51:21.315Z,42.71
2016-07-20T01:52:21.981Z,43.01
2016-07-20T01:53:21.281Z,42.99
2016-07-20T01:54:21.996Z,42.33
2016-07-20T01:55:22.003Z,43.08
2016-07-20T01:56:21.303Z,42.89
2016-07-20T01:57:21.762Z,42.52
2016-07-20T01:58:22.023Z,42.89
2016-07-20T01:59:21.324Z,42.71
2016-07-20T02:00:21.333Z,42.6
2016-07-20T02:01:22.047Z,42.5
2016-07-20T02:02:21.345Z,42.6
2016-07-20T02:03:22.059Z,42.33
2016-07-20T02:04:22.067Z,42.3
2016-07-20T02:05:22.074Z,43.1
2016-07-20T02:06:21.375Z,42.23
2016-07-20T02:07:21.382Z,42.81
2016-07-20T02:08:21.638Z,43.01
2016-07-20T02:09:21.396Z,42.52
2016-07-20T02:10:21.403Z,42.43
2016-07-20T02:11:22.117Z,42.89
2016-07-20T02:12:21.424Z,42.4
2016-07-20T02:13:22.127Z,42.71
2016-07-20T02:14:22.135Z,42.81
2016-07-20T02:15:22.145Z,42.5
2016-07-20T02:16:22.153Z,42.52
2016-07-20T02:17:21.451Z,43.1
2016-07-20T02:18:21.462Z,43.01
2016-07-20T02:19:21.467Z,42.6
2016-07-20T02:20:22.181Z,42.6
2016-07-20T02:21:23.290Z,42.71
2016-07-20T02:22:22.197Z,43.01
2016-07-20T02:23:22.200Z,42.5
2016-07-20T02:24:36.380Z,42.89
2016-07-20T02:25:21.516Z,42.6
2016-07-20T02:26:21.515Z,42.69
2016-07-20T02:27:22.230Z,42.69
2016-07-20T02:28:22.237Z,42.99
2016-07-20T02:29:21.542Z,42.6
2016-07-20T02:30:22.252Z,42.89
2016-07-20T02:31:22.258Z,42.89
2016-07-20T02:32:21.558Z,42.99
2016-07-20T02:33:21.566Z,42.89
2016-07-20T02:34:21.572Z,42.99
2016-07-20T02:35:21.581Z,42.89
2016-07-20T02:36:21.585Z,43.18
2016-07-20T02:37:21.602Z,43.08
2016-07-20T02:38:21.603Z,42.99
2016-07-20T02:39:21.609Z,42.89
2016-07-20T02:40:21.617Z,42.89
2016-07-20T02:41:21.873Z,42.99
2016-07-20T02:42:21.630Z,42.99
2016-07-20T02:43:22.346Z,43.08
2016-07-20T02:44:22.352Z,42.89
2016-07-20T02:45:21.654Z,43.27
2016-07-20T02:46:21.661Z,42.89
2016-07-20T02:47:22.385Z,42.99
2016-07-20T02:48:21.671Z,43.37
2016-07-20T02:49:21.680Z,43.08
2016-07-20T02:50:22.446Z,42.89
2016-07-20T02:51:21.747Z,42.99
2016-07-20T02:52:21.703Z,43.08
2016-07-20T02:53:21.717Z,42.99
2016-07-20T02:54:36.595Z,43.27
2016-07-20T02:55:22.431Z,42.99
2016-07-20T02:56:22.438Z,43.37
2016-07-20T02:57:22.445Z,43.37
2016-07-20T02:58:22.452Z,43.27
2016-07-20T02:59:22.459Z,42.99
2016-07-20T03:00:22.469Z,43.18
2016-07-20T03:01:22.473Z,43.37
2016-07-20T03:02:21.773Z,43.18
2016-07-20T03:03:22.333Z,43.27
2016-07-20T03:04:22.494Z,43.37
2016-07-20T03:05:21.796Z,43.27
2016-07-20T03:06:21.801Z,43.47
2016-07-20T03:07:22.515Z,42.89
2016-07-20T03:08:22.530Z,43.08
2016-07-20T03:09:21.825Z,43.08
2016-07-20T03:10:21.832Z,43.18
2016-07-20T03:11:21.839Z,43.37
2016-07-20T03:12:22.552Z,43.08
2016-07-20T03:13:21.852Z,43.18
2016-07-20T03:14:22.568Z,43.08
2016-07-20T03:15:22.572Z,43.08
2016-07-20T03:16:22.582Z,42.99
2016-07-20T03:17:21.882Z,43.18
2016-07-20T03:18:21.887Z,43.18
2016-07-20T03:19:22.600Z,43.47
2016-07-20T03:20:21.903Z,42.99
2016-07-20T03:21:22.628Z,43.18
2016-07-20T03:22:22.622Z,43.08
2016-07-20T03:23:21.924Z,43.18
2016-07-20T03:24:21.929Z,43.18
2016-07-20T03:25:22.139Z,43.37
2016-07-20T03:26:21.942Z,43.37
2016-07-20T03:27:22.658Z,43.47
2016-07-20T03:28:22.666Z,42.99
2016-07-20T03:29:22.674Z,43.18
2016-07-20T03:30:21.982Z,43.27
2016-07-20T03:31:21.980Z,43.18
2016-07-20T03:32:22.692Z,43.57
2016-07-20T03:33:21.994Z,43.47
2016-07-20T03:34:21.999Z,43.37
2016-07-20T03:35:22.017Z,43.37
2016-07-20T03:36:22.725Z,43.27
2016-07-20T03:37:22.729Z,43.08
2016-07-20T03:38:22.029Z,43.08
2016-07-20T03:39:22.742Z,43.18
2016-07-20T03:40:22.754Z,43.66
2016-07-20T03:41:22.757Z,43.18
2016-07-20T03:42:22.816Z,43.27
2016-07-20T03:43:22.068Z,43.47
2016-07-20T03:44:22.780Z,43.37
2016-07-20T03:45:22.786Z,43.27
2016-07-20T03:46:22.794Z,43.47
2016-07-20T03:47:22.147Z,43.57
2016-07-20T03:48:22.809Z,43.47
2016-07-20T03:49:22.108Z,43.57
2016-07-20T03:50:22.823Z,43.76
2016-07-20T03:51:22.879Z,43.47
2016-07-20T03:52:22.836Z,43.47
2016-07-20T03:53:22.137Z,43.57
2016-07-20T03:54:22.850Z,43.47
2016-07-20T03:55:22.857Z,43.57
2016-07-20T03:56:22.158Z,43.57
2016-07-20T03:57:22.164Z,43.37
2016-07-20T03:58:22.174Z,43.66
2016-07-20T03:59:22.886Z,43.57
2016-07-20T04:00:23.957Z,44.24
2016-07-20T04:01:22.906Z,43.47
2016-07-20T04:02:22.907Z,43.57
2016-07-20T04:03:22.209Z,43.76
2016-07-20T04:04:22.922Z,43.66
2016-07-20T04:05:22.929Z,43.66
2016-07-20T04:06:22.939Z,44.05
2016-07-20T04:07:22.237Z,43.76
2016-07-20T04:08:22.953Z,43.37
2016-07-20T04:09:22.968Z,43.57
2016-07-20T04:10:22.260Z,44.44
2016-07-20T04:11:23.971Z,43.66
2016-07-20T04:12:22.980Z,43.66
2016-07-20T04:13:22.988Z,43.47
2016-07-20T04:14:22.287Z,43.76
2016-07-20T04:15:22.296Z,43.76
2016-07-20T04:16:23.009Z,44.24
2016-07-20T04:17:22.307Z,44.34
2016-07-20T04:18:23.034Z,43.66
2016-07-20T04:19:22.321Z,44.15
2016-07-20T04:20:23.038Z,43.37
2016-07-20T04:21:23.046Z,43.47
2016-07-20T04:22:22.344Z,43.95
2016-07-20T04:23:23.063Z,43.66
2016-07-20T04:24:23.067Z,43.66
2016-07-20T04:25:23.074Z,43.47
2016-07-20T04:26:23.080Z,43.66
2016-07-20T04:27:23.087Z,43.47
2016-07-20T04:28:23.092Z,43.76
2016-07-20T04:29:23.099Z,43.57
2016-07-20T04:30:23.110Z,44.54
2016-07-20T04:31:24.033Z,43.66
2016-07-20T04:32:22.415Z,43.37
2016-07-20T04:33:23.781Z,43.76
2016-07-20T04:34:23.138Z,43.47
2016-07-20T04:35:22.439Z,43.66
2016-07-20T04:36:23.151Z,43.66
2016-07-20T04:37:22.453Z,43.76
2016-07-20T04:38:23.168Z,43.57
2016-07-20T04:39:22.465Z,43.47
2016-07-20T04:40:23.181Z,44.24
2016-07-20T04:41:23.188Z,43.66
2016-07-20T04:42:23.868Z,43.47
2016-07-20T04:43:22.495Z,43.47
2016-07-20T04:44:23.603Z,44.34
2016-07-20T04:45:22.513Z,43.57
2016-07-20T04:46:23.226Z,43.47
2016-07-20T04:47:22.524Z,43.66
2016-07-20T04:48:22.531Z,43.76
2016-07-20T04:49:23.247Z,43.76
2016-07-20T04:50:23.259Z,43.86
2016-07-20T04:51:23.261Z,43.76
2016-07-20T04:52:22.563Z,43.47
2016-07-20T04:53:24.398Z,43.47
2016-07-20T04:54:23.285Z,43.57
2016-07-20T04:55:23.385Z,43.37
2016-07-20T04:56:22.603Z,43.37
2016-07-20T04:57:23.307Z,43.2
2016-07-20T04:58:23.309Z,43.4
2016-07-20T04:59:23.320Z,43.01
2016-07-20T05:00:23.329Z,43.2
2016-07-20T05:01:23.331Z,42.91
2016-07-20T05:02:22.634Z,42.81
2016-07-20T05:03:23.353Z,42.61
2016-07-20T05:04:22.648Z,42.43
2016-07-20T05:05:23.362Z,42.43
2016-07-20T05:06:23.621Z,42.71
2016-07-20T05:07:22.668Z,42.71
2016-07-20T05:08:23.387Z,43.01
2016-07-20T05:09:22.684Z,42.54
2016-07-20T05:10:23.405Z,42.44
2016-07-20T05:11:23.407Z,42.93
2016-07-20T05:12:23.416Z,42.54
2016-07-20T05:13:23.424Z,42.44
2016-07-20T05:14:23.432Z,42.54
2016-07-20T05:15:23.857Z,42.64
2016-07-20T05:16:23.458Z,42.74
2016-07-20T05:17:23.607Z,42.64
2016-07-20T05:18:23.464Z,41.86
2016-07-20T05:19:22.769Z,42.44
2016-07-20T05:20:23.487Z,41.86
2016-07-20T05:21:23.494Z,42.27
2016-07-20T05:22:23.504Z,42.15
2016-07-20T05:23:23.513Z,41.78
2016-07-20T05:24:23.522Z,41.59
2016-07-20T05:25:23.532Z,41.59
2016-07-20T05:26:24.644Z,41.88
2016-07-20T05:27:23.552Z,41.1
2016-07-20T05:28:23.610Z,41.39
2016-07-20T05:29:23.570Z,41.88
2016-07-20T05:30:23.581Z,41.69
2016-07-20T05:31:23.596Z,41.59
2016-07-20T05:32:22.898Z,41.59
2016-07-20T05:33:23.613Z,41.01
2016-07-20T05:34:23.623Z,41.49
2016-07-20T05:35:23.633Z,41.1
2016-07-20T05:36:23.645Z,41.51
2016-07-20T05:37:24.703Z,41.22
2016-07-20T05:38:22.956Z,41.42
2016-07-20T05:39:23.676Z,41.32
2016-07-20T05:40:22.984Z,41.51
2016-07-20T05:41:22.993Z,41.61
2016-07-20T05:42:23.002Z,40.73
2016-07-20T05:43:23.012Z,40.54
2016-07-20T05:44:23.732Z,41.22
2016-07-20T05:45:23.738Z,41.22
2016-07-20T05:46:23.045Z,40.34
2016-07-20T05:47:23.053Z,41.03
2016-07-20T05:48:23.916Z,40.54
2016-07-20T05:49:23.076Z,40.34
2016-07-20T05:50:23.812Z,40.37
2016-07-20T05:51:23.809Z,40.47
2016-07-20T05:52:23.115Z,40.66
2016-07-20T05:53:23.120Z,40.66
2016-07-20T05:54:23.132Z,40.17
2016-07-20T05:55:23.194Z,40.17
2016-07-20T05:56:23.153Z,39.88
2016-07-20T05:57:23.168Z,40.08
2016-07-20T05:58:23.882Z,40
2016-07-20T05:59:24.697Z,40.27
2016-07-20T06:00:23.906Z,40.08
2016-07-20T06:01:23.917Z,40.39
2016-07-20T06:02:23.931Z,40.08
2016-07-20T06:03:23.234Z,39.9
2016-07-20T06:04:23.952Z,39.9
2016-07-20T06:05:23.966Z,39.7
2016-07-20T06:06:23.269Z,39.61
2016-07-20T06:07:23.987Z,39.41
2016-07-20T06:08:23.302Z,39.7
2016-07-20T06:09:23.307Z,39.22
2016-07-20T06:10:23.917Z,39.31
2016-07-20T06:11:24.033Z,39.41
2016-07-20T06:12:24.044Z,39.31
2016-07-20T06:13:23.348Z,39.31
2016-07-20T06:14:23.360Z,39.51
2016-07-20T06:15:24.080Z,39.7
2016-07-20T06:16:24.090Z,39.41
2016-07-20T06:17:23.398Z,39.34
2016-07-20T06:18:24.117Z,39.43
2016-07-20T06:19:24.126Z,39.04
2016-07-20T06:20:24.139Z,38.85
2016-07-20T06:21:24.858Z,39.14
2016-07-20T06:22:24.158Z,38.95
2016-07-20T06:23:24.173Z,38.65
2016-07-20T06:24:23.484Z,38.85
2016-07-20T06:25:23.491Z,38.65
2016-07-20T06:26:24.208Z,38.65
2016-07-20T06:27:24.223Z,38.85
2016-07-20T06:28:24.232Z,38.85
2016-07-20T06:29:23.538Z,38.65
2016-07-20T06:30:24.258Z,38.75
2016-07-20T06:31:24.270Z,38.56
2016-07-20T06:32:25.383Z,38.56
2016-07-20T06:33:24.291Z,38.56
2016-07-20T06:34:24.404Z,38.75
2016-07-20T06:35:23.622Z,38.65
2016-07-20T06:36:23.621Z,38.57
2016-07-20T06:37:23.635Z,38.67
2016-07-20T06:38:24.351Z,38.28
2016-07-20T06:39:23.661Z,38.26
2016-07-20T06:40:23.670Z,38.48
2016-07-20T06:41:23.681Z,38.09
2016-07-20T06:42:24.403Z,38.18
2016-07-20T06:43:24.808Z,38.09
2016-07-20T06:44:24.473Z,38.09
2016-07-20T06:45:24.532Z,38.28
2016-07-20T06:46:23.742Z,38.09
2016-07-20T06:47:23.755Z,38.09
2016-07-20T06:48:24.475Z,38.18
2016-07-20T06:49:24.487Z,38.09
2016-07-20T06:50:23.922Z,37.79
2016-07-20T06:51:24.513Z,38.09
2016-07-20T06:52:23.817Z,37.99
2016-07-20T06:53:23.830Z,38.18
2016-07-20T06:54:25.031Z,38.09
2016-07-20T06:55:24.568Z,38.09
2016-07-20T06:56:24.729Z,37.99
2016-07-20T06:57:23.881Z,38.09
2016-07-20T06:58:24.596Z,38.09
2016-07-20T06:59:23.903Z,38.09
2016-07-20T07:00:23.916Z,38.18
2016-07-20T07:01:23.929Z,37.91
2016-07-20T07:02:23.941Z,38.1
2016-07-20T07:03:24.659Z,37.99
2016-07-20T07:04:24.672Z,38.4
2016-07-20T07:05:25.198Z,38.01
2016-07-20T07:06:24.697Z,38.28
2016-07-20T07:07:24.901Z,38.18
2016-07-20T07:08:24.018Z,38.18
2016-07-20T07:09:24.742Z,38.28
2016-07-20T07:10:24.759Z,38.18
2016-07-20T07:11:24.768Z,37.89
2016-07-20T07:12:24.064Z,38.1
2016-07-20T07:13:24.078Z,37.62
2016-07-20T07:14:24.798Z,37.52
2016-07-20T07:15:24.823Z,37.43
2016-07-20T07:16:25.234Z,37.43
2016-07-20T07:17:24.128Z,37.91
2016-07-20T07:18:24.995Z,37.71
2016-07-20T07:19:24.864Z,37.81
2016-07-20T07:20:24.169Z,38.1
2016-07-20T07:21:24.889Z,37.71
2016-07-20T07:22:24.189Z,37.81
2016-07-20T07:23:24.915Z,37.62
2016-07-20T07:24:24.929Z,37.43
2016-07-20T07:25:24.231Z,37.43
2016-07-20T07:26:24.952Z,36.84
2016-07-20T07:27:25.484Z,37.35
2016-07-20T07:28:24.268Z,37.62
2016-07-20T07:29:25.392Z,37.71
2016-07-20T07:30:25.004Z,37.62
2016-07-20T07:31:25.015Z,37.43
2016-07-20T07:32:25.030Z,37.43
2016-07-20T07:33:24.335Z,37.71
2016-07-20T07:34:25.054Z,37.52
2016-07-20T07:35:25.066Z,37.62
2016-07-20T07:36:25.081Z,37.62
2016-07-20T07:37:25.093Z,37.52
2016-07-20T07:38:25.992Z,37.23
2016-07-20T07:39:24.411Z,37.62
2016-07-20T07:40:25.680Z,37.62
2016-07-20T07:41:25.144Z,37.33
2016-07-20T07:42:24.449Z,37.62
2016-07-20T07:43:25.170Z,36.84
2016-07-20T07:44:24.480Z,36.84
2016-07-20T07:45:25.193Z,37.71
2016-07-20T07:46:24.501Z,37.81
2016-07-20T07:47:24.510Z,38.18
2016-07-20T07:48:24.522Z,38.56
2016-07-20T07:49:24.537Z,38.75
2016-07-20T07:50:24.544Z,38.75
2016-07-20T07:51:25.762Z,38.95
2016-07-20T07:52:24.577Z,38.07
2016-07-20T07:53:25.278Z,37.87
2016-07-20T07:54:25.289Z,38.17
2016-07-20T07:55:25.298Z,37.87
2016-07-20T07:56:25.306Z,38.17
2016-07-20T07:57:25.359Z,38.56
2016-07-20T07:58:25.376Z,39.04
2016-07-20T07:59:25.327Z,38.93
2016-07-20T08:00:25.338Z,39.61
2016-07-20T08:01:24.636Z,39.31
2016-07-20T08:02:26.305Z,39.41
2016-07-20T08:03:25.364Z,39.9
2016-07-20T08:04:24.662Z,39.78
2016-07-20T08:05:25.378Z,39.8
2016-07-20T08:06:25.389Z,39.31
2016-07-20T08:07:24.691Z,39.31
2016-07-20T08:08:25.402Z,39.31
2016-07-20T08:09:25.413Z,39.51
2016-07-20T08:10:25.419Z,39.61
2016-07-20T08:11:24.722Z,39.51
2016-07-20T08:12:24.731Z,39.61
2016-07-20T08:13:26.499Z,39.51
2016-07-20T08:14:24.745Z,39.41
2016-07-20T08:15:25.467Z,39.31
2016-07-20T08:16:24.767Z,40
2016-07-20T08:17:25.480Z,39.78
2016-07-20T08:18:24.847Z,39.78
2016-07-20T08:19:25.499Z,39.9
2016-07-20T08:20:25.506Z,39.8
2016-07-20T08:21:24.808Z,40.17
2016-07-20T08:22:25.529Z,40.27
2016-07-20T08:23:25.528Z,40.27
2016-07-20T08:24:26.657Z,40.27
2016-07-20T08:25:24.841Z,40.08
2016-07-20T08:26:24.845Z,40.27
2016-07-20T08:27:25.565Z,40.85
2016-07-20T08:28:25.573Z,39.88
2016-07-20T08:29:24.872Z,40.27
2016-07-20T08:30:25.590Z,40.17
2016-07-20T08:31:25.597Z,40.08
2016-07-20T08:32:25.605Z,39.49
2016-07-20T08:33:25.620Z,38.81
2016-07-20T08:34:24.915Z,38.83
2016-07-20T08:35:26.799Z,38.44
2016-07-20T08:36:24.929Z,39.12
2016-07-20T08:37:24.937Z,38.73
2016-07-20T08:38:25.653Z,38.83
2016-07-20T08:39:25.659Z,38.93
2016-07-20T08:40:24.959Z,38.15
2016-07-20T08:41:25.679Z,37.95
2016-07-20T08:42:24.972Z,38.44
2016-07-20T08:43:25.723Z,38.83
2016-07-20T08:44:25.692Z,39
2016-07-20T08:45:25.703Z,39.39
2016-07-20T08:46:25.000Z,39.49
2016-07-20T08:47:25.713Z,39.78
2016-07-20T08:48:25.722Z,39.98
2016-07-20T08:49:25.727Z,40.44
2016-07-20T08:50:25.739Z,40.54
2016-07-20T08:51:25.745Z,40.54
2016-07-20T08:52:25.042Z,40.44
2016-07-20T08:53:25.766Z,40.64
2016-07-20T08:54:25.059Z,40.64
2016-07-20T08:55:25.776Z,40.54
2016-07-20T08:56:25.078Z,40.44
2016-07-20T08:57:25.196Z,39.96
2016-07-20T08:58:25.848Z,39.98
2016-07-20T08:59:25.250Z,39.29
2016-07-20T09:00:25.812Z,38.73
2016-07-20T09:01:25.115Z,38.93
2016-07-20T09:02:25.831Z,39.22
2016-07-20T09:03:25.838Z,39.2
2016-07-20T09:04:25.139Z,39.59
2016-07-20T09:05:25.852Z,39.98
2016-07-20T09:06:25.860Z,40.75
2016-07-20T09:07:25.867Z,39.98
2016-07-20T09:08:25.877Z,40.08
2016-07-20T09:09:25.887Z,40.08
2016-07-20T09:10:25.187Z,40.27
2016-07-20T09:11:25.901Z,40.56
2016-07-20T09:12:25.909Z,41.24
2016-07-20T09:13:25.211Z,41.14
2016-07-20T09:14:25.926Z,41.51
2016-07-20T09:15:25.935Z,41.53
2016-07-20T09:16:25.943Z,40.37
2016-07-20T09:17:25.950Z,40.75
2016-07-20T09:18:25.958Z,40.47
2016-07-20T09:19:25.966Z,41.26
2016-07-20T09:20:25.271Z,41.26
2016-07-20T09:21:25.986Z,41.34
2016-07-20T09:22:25.282Z,40.95
2016-07-20T09:23:25.292Z,41.53
2016-07-20T09:24:25.301Z,41.53
2016-07-20T09:25:25.306Z,41.05
2016-07-20T09:26:26.030Z,40.08
2016-07-20T09:27:26.029Z,40.48
2016-07-20T09:28:26.089Z,39.9
2016-07-20T09:29:26.046Z,38.93
2016-07-20T09:30:25.346Z,38.93
2016-07-20T09:31:25.357Z,39.51
2016-07-20T09:32:25.360Z,39.8
2016-07-20T09:33:26.078Z,39.78
2016-07-20T09:34:26.087Z,37.84
2016-07-20T09:35:26.093Z,37.68
2016-07-20T09:36:25.393Z,37.48
2016-07-20T09:37:26.103Z,38.07
2016-07-20T09:38:26.112Z,38.95
2016-07-20T09:39:26.420Z,39.03
2016-07-20T09:40:26.125Z,39.61
2016-07-20T09:41:25.427Z,39.7
2016-07-20T09:42:26.140Z,40.08
2016-07-20T09:43:25.440Z,40.47
2016-07-20T09:44:25.451Z,41.24
2016-07-20T09:45:26.164Z,41.13
2016-07-20T09:46:26.168Z,40.95
2016-07-20T09:47:26.176Z,40.95
2016-07-20T09:48:26.185Z,38.5
2016-07-20T09:49:25.486Z,37.95
2016-07-20T09:50:26.590Z,37.68
2016-07-20T09:51:26.208Z,37.87
2016-07-20T09:52:26.214Z,37.95
2016-07-20T09:53:25.515Z,38.64
2016-07-20T09:54:26.240Z,38.13
2016-07-20T09:55:25.529Z,38.64
2016-07-20T09:56:26.248Z,38.83
2016-07-20T09:57:26.249Z,39.39
2016-07-20T09:58:25.552Z,38.91
2016-07-20T09:59:26.317Z,37.74
2016-07-20T10:00:26.274Z,37.66
2016-07-20T10:01:26.978Z,37.95
2016-07-20T10:02:26.340Z,37.85
2016-07-20T10:03:25.835Z,37.76
2016-07-20T10:04:25.595Z,38.05
2016-07-20T10:05:26.305Z,37.27
2016-07-20T10:06:26.315Z,38.05
2016-07-20T10:07:25.616Z,37.66
2016-07-20T10:08:25.625Z,36.69
2016-07-20T10:09:26.335Z,36.32
2016-07-20T10:10:25.633Z,36.61
2016-07-20T10:11:26.348Z,37.19
2016-07-20T10:12:27.447Z,37.08
2016-07-20T10:13:26.362Z,37.56
2016-07-20T10:14:27.116Z,36.69
2016-07-20T10:15:26.373Z,36.9
2016-07-20T10:16:26.379Z,37.19
2016-07-20T10:17:25.681Z,37.48
2016-07-20T10:18:25.685Z,38.05
2016-07-20T10:19:25.708Z,38.05
2016-07-20T10:20:26.408Z,38.24
2016-07-20T10:21:26.430Z,38.64
2016-07-20T10:22:25.719Z,38.71
2016-07-20T10:23:26.437Z,38.91
2016-07-20T10:24:25.733Z,39
2016-07-20T10:25:26.842Z,38.52
2016-07-20T10:26:26.456Z,38.34
2016-07-20T10:27:26.464Z,38.83
2016-07-20T10:28:26.471Z,38.34
2016-07-20T10:29:26.477Z,38.44
2016-07-20T10:30:26.486Z,38.64
2016-07-20T10:31:25.786Z,38.83
2016-07-20T10:32:26.502Z,39.03
2016-07-20T10:33:26.513Z,37.37
2016-07-20T10:34:26.516Z,37.29
2016-07-20T10:35:26.523Z,37
2016-07-20T10:36:25.819Z,37.58
2016-07-20T10:37:25.825Z,37.97
2016-07-20T10:38:26.540Z,37.95
2016-07-20T10:39:26.546Z,38.15
2016-07-20T10:40:25.848Z,38.44
2016-07-20T10:41:25.859Z,38.15
2016-07-20T10:42:26.571Z,38.15
2016-07-20T10:43:26.583Z,38.05
2016-07-20T10:44:26.583Z,37.66
2016-07-20T10:45:26.586Z,37.39
2016-07-20T10:46:25.889Z,37
2016-07-20T10:47:27.537Z,37.1
2016-07-20T10:48:25.907Z,36.51
2016-07-20T10:49:26.617Z,36.71
2016-07-20T10:50:26.640Z,37.58
2016-07-20T10:51:26.631Z,38.17
2016-07-20T10:52:26.639Z,38.15
2016-07-20T10:53:26.652Z,38.44
2016-07-20T10:54:40.822Z,37.84
2016-07-20T10:55:25.952Z,37.19
2016-07-20T10:56:26.667Z,36.63
2016-07-20T10:57:25.967Z,36.72
2016-07-20T10:58:25.979Z,36.72
2016-07-20T10:59:26.074Z,36.63
2016-07-20T11:00:26.690Z,36.63
2016-07-20T11:01:25.990Z,37.02
2016-07-20T11:02:26.909Z,37
2016-07-20T11:03:26.002Z,36.8
2016-07-20T11:04:26.719Z,37.89
2016-07-20T11:05:26.069Z,38.36
2016-07-20T11:06:26.024Z,38.75
2016-07-20T11:07:26.886Z,38.64
2016-07-20T11:08:26.038Z,38.44
2016-07-20T11:09:26.764Z,37.58
2016-07-20T11:10:26.759Z,36.71
2016-07-20T11:11:26.764Z,36.82
2016-07-20T11:12:26.063Z,38.17
2016-07-20T11:13:26.073Z,38.26
2016-07-20T11:14:26.078Z,38.54
2016-07-20T11:15:26.798Z,37.18
2016-07-20T11:16:26.092Z,36.82
2016-07-20T11:17:26.804Z,36.82
2016-07-20T11:18:27.075Z,36.8
2016-07-20T11:19:26.820Z,37.48
2016-07-20T11:20:26.124Z,37.68
2016-07-20T11:21:26.833Z,38.26
2016-07-20T11:22:26.134Z,37.19
2016-07-20T11:23:26.846Z,36.61
2016-07-20T11:24:26.853Z,35.16
2016-07-20T11:25:26.856Z,34.99
2016-07-20T11:26:26.864Z,35.77
2016-07-20T11:27:26.871Z,35.94
2016-07-20T11:28:26.171Z,35.67
2016-07-20T11:29:26.574Z,36.72
2016-07-20T11:30:26.891Z,37.19
2016-07-20T11:31:26.896Z,37.58
2016-07-20T11:32:26.196Z,37.08
2016-07-20T11:33:26.910Z,36.22
2016-07-20T11:34:26.211Z,36.53
2016-07-20T11:35:26.215Z,36.04
2016-07-20T11:36:26.927Z,36.72
2016-07-20T11:37:26.224Z,36.9
2016-07-20T11:38:26.231Z,37.1
2016-07-20T11:39:26.947Z,37.29
2016-07-20T11:40:27.600Z,36.71
2016-07-20T11:41:26.251Z,36.72
2016-07-20T11:42:26.967Z,37.1
2016-07-20T11:43:26.978Z,37.29
2016-07-20T11:44:27.025Z,37.87
2016-07-20T11:45:26.281Z,38.05
2016-07-20T11:46:26.298Z,38.15
2016-07-20T11:47:26.998Z,38.64
2016-07-20T11:48:27.009Z,38.83
2016-07-20T11:49:26.309Z,38.64
2016-07-20T11:50:26.321Z,38.71
2016-07-20T11:51:27.024Z,38.91
2016-07-20T11:52:27.043Z,39.1
2016-07-20T11:53:26.644Z,39
2016-07-20T11:54:27.060Z,39.39
2016-07-20T11:55:26.360Z,39.49
2016-07-20T11:56:27.074Z,39.2
2016-07-20T11:57:27.087Z,39.39
2016-07-20T11:58:27.090Z,39.78
2016-07-20T11:59:27.151Z,39.2
2016-07-20T12:00:27.107Z,39.49
2016-07-20T12:01:26.412Z,39.03
2016-07-20T12:02:27.971Z,39.03
2016-07-20T12:03:27.137Z,38.73
2016-07-20T12:04:26.933Z,37.85
2016-07-20T12:05:26.440Z,37.1
2016-07-20T12:06:27.151Z,37.89
2016-07-20T12:07:26.453Z,38.26
2016-07-20T12:08:26.467Z,38.75
2016-07-20T12:09:26.462Z,38.54
2016-07-20T12:10:26.472Z,38.07
2016-07-20T12:11:27.187Z,38.56
2016-07-20T12:12:27.194Z,38.07
2016-07-20T12:13:27.392Z,38.24
2016-07-20T12:14:26.510Z,38.17
2016-07-20T12:15:27.213Z,37.97
2016-07-20T12:16:27.217Z,37.87
2016-07-20T12:17:27.226Z,38.26
2016-07-20T12:18:26.526Z,38.07
2016-07-20T12:19:26.534Z,38.17
2016-07-20T12:20:27.245Z,38.65
2016-07-20T12:21:26.546Z,38.65
2016-07-20T12:22:27.258Z,38.36
2016-07-20T12:23:26.558Z,38.56
2016-07-20T12:24:27.735Z,37.87
2016-07-20T12:25:27.282Z,36.72
2016-07-20T12:26:27.531Z,37.5
2016-07-20T12:27:27.284Z,37.79
2016-07-20T12:28:26.586Z,36.63
2016-07-20T12:29:27.300Z,36.74
2016-07-20T12:30:27.306Z,36.65
2016-07-20T12:31:27.051Z,36.65
2016-07-20T12:32:26.626Z,37.21
2016-07-20T12:33:27.320Z,37.21
2016-07-20T12:34:27.324Z,37.41
2016-07-20T12:35:28.284Z,38.36
2016-07-20T12:36:27.342Z,38.65
2016-07-20T12:37:26.639Z,38.54
2016-07-20T12:38:27.353Z,38.93
2016-07-20T12:39:26.651Z,38.73
2016-07-20T12:40:27.367Z,38.44
2016-07-20T12:41:27.374Z,38.15
2016-07-20T12:42:27.382Z,37.87
2016-07-20T12:43:26.680Z,38.07
2016-07-20T12:44:26.839Z,38.17
2016-07-20T12:45:27.405Z,38.24
2016-07-20T12:46:27.414Z,38.15
2016-07-20T12:47:27.421Z,38.73
2016-07-20T12:48:26.720Z,37.56
2016-07-20T12:49:26.727Z,38.65
2016-07-20T12:50:27.442Z,38.05
2016-07-20T12:51:27.551Z,37.1
2016-07-20T12:52:27.456Z,37.39
2016-07-20T12:53:27.463Z,37.87
2016-07-20T12:54:27.470Z,38.17
2016-07-20T12:55:27.829Z,38.15